sensor_id;sensor_type;location;lat;lon;timestamp;pressure;altitude;pressure_sealevel;temperature;humidity
75036;BME280;64247;51.540;5.854;2023-04-15T00:01:13;100463.25;;;4.90;92.19
75036;BME280;64247;51.540;5.854;2023-04-15T00:03:18;100455.44;;;4.80;91.92
75036;BME280;64247;51.540;5.854;2023-04-15T00:05:20;100460.31;;;4.69;92.03
75036;BME280;64247;51.540;5.854;2023-04-15T00:07:21;100457.91;;;4.58;91.79
75036;BME280;64247;51.540;5.854;2023-04-15T00:09:22;100456.75;;;4.51;92.29
75036;BME280;64247;51.540;5.854;2023-04-15T00:11:23;100452.13;;;4.42;92.35
75036;BME280;64247;51.540;5.854;2023-04-15T00:13:24;100455.56;;;4.34;93.31
75036;BME280;64247;51.540;5.854;2023-04-15T00:15:25;100453.63;;;4.26;93.32
75036;BME280;64247;51.540;5.854;2023-04-15T00:17:26;100455.66;;;4.20;93.77
75036;BME280;64247;51.540;5.854;2023-04-15T00:19:27;100452.47;;;4.18;93.46
75036;BME280;64247;51.540;5.854;2023-04-15T00:21:29;100455.78;;;4.15;93.56
75036;BME280;64247;51.540;5.854;2023-04-15T00:23:30;100446.13;;;4.14;93.81
75036;BME280;64247;51.540;5.854;2023-04-15T00:25:31;100457.50;;;4.11;93.79
75036;BME280;64247;51.540;5.854;2023-04-15T00:27:32;100453.81;;;4.07;94.22
75036;BME280;64247;51.540;5.854;2023-04-15T00:29:33;100460.91;;;4.03;94.27
75036;BME280;64247;51.540;5.854;2023-04-15T00:31:35;100451.59;;;4.00;93.99
75036;BME280;64247;51.540;5.854;2023-04-15T00:33:36;100450.78;;;4.00;94.20
75036;BME280;64247;51.540;5.854;2023-04-15T00:35:37;100450.59;;;3.96;94.43
75036;BME280;64247;51.540;5.854;2023-04-15T00:37:37;100448.41;;;3.98;95.48
75036;BME280;64247;51.540;5.854;2023-04-15T00:39:38;100445.59;;;4.03;96.51
75036;BME280;64247;51.540;5.854;2023-04-15T00:41:39;100448.16;;;4.08;96.23
75036;BME280;64247;51.540;5.854;2023-04-15T00:43:40;100451.13;;;4.07;96.31
75036;BME280;64247;51.540;5.854;2023-04-15T00:45:41;100455.72;;;4.06;96.62
75036;BME280;64247;51.540;5.854;2023-04-15T00:47:43;100457.13;;;4.04;96.69
75036;BME280;64247;51.540;5.854;2023-04-15T00:49:45;100439.75;;;4.01;96.46
75036;BME280;64247;51.540;5.854;2023-04-15T00:51:46;100450.00;;;3.99;96.65
75036;BME280;64247;51.540;5.854;2023-04-15T00:53:47;100455.97;;;3.96;96.79
75036;BME280;64247;51.540;5.854;2023-04-15T00:55:48;100458.97;;;3.94;97.11
75036;BME280;64247;51.540;5.854;2023-04-15T00:57:49;100452.63;;;3.90;96.94
75036;BME280;64247;51.540;5.854;2023-04-15T00:59:52;100453.81;;;3.84;96.39
75036;BME280;64247;51.540;5.854;2023-04-15T01:01:55;100442.44;;;3.78;96.87
75036;BME280;64247;51.540;5.854;2023-04-15T01:03:56;100456.44;;;3.75;97.04
75036;BME280;64247;51.540;5.854;2023-04-15T01:06:01;100447.91;;;3.73;96.83
75036;BME280;64247;51.540;5.854;2023-04-15T01:08:04;100452.00;;;3.71;97.05
75036;BME280;64247;51.540;5.854;2023-04-15T01:10:06;100456.59;;;3.70;97.51
75036;BME280;64247;51.540;5.854;2023-04-15T01:12:09;100458.44;;;3.70;98.47
75036;BME280;64247;51.540;5.854;2023-04-15T01:14:12;100453.72;;;3.67;98.44
75036;BME280;64247;51.540;5.854;2023-04-15T01:16:13;100455.91;;;3.64;98.70
75036;BME280;64247;51.540;5.854;2023-04-15T01:18:14;100454.72;;;3.57;98.91
75036;BME280;64247;51.540;5.854;2023-04-15T01:20:15;100447.88;;;3.51;98.52
75036;BME280;64247;51.540;5.854;2023-04-15T01:22:16;100447.81;;;3.42;98.18
75036;BME280;64247;51.540;5.854;2023-04-15T01:24:18;100445.25;;;3.37;98.42
75036;BME280;64247;51.540;5.854;2023-04-15T01:26:19;100451.50;;;3.32;98.40
75036;BME280;64247;51.540;5.854;2023-04-15T01:28:21;100441.97;;;3.26;98.56
75036;BME280;64247;51.540;5.854;2023-04-15T01:30:22;100445.84;;;3.20;99.04
75036;BME280;64247;51.540;5.854;2023-04-15T01:32:23;100452.13;;;3.15;99.73
75036;BME280;64247;51.540;5.854;2023-04-15T01:34:25;100451.91;;;3.11;99.92
75036;BME280;64247;51.540;5.854;2023-04-15T01:36:28;100453.13;;;3.05;100.00
75036;BME280;64247;51.540;5.854;2023-04-15T01:38:29;100444.38;;;2.99;100.00
75036;BME280;64247;51.540;5.854;2023-04-15T01:40:31;100448.47;;;2.97;100.00
75036;BME280;64247;51.540;5.854;2023-04-15T01:42:34;100447.97;;;2.95;100.00
75036;BME280;64247;51.540;5.854;2023-04-15T01:44:36;100448.75;;;2.95;100.00
75036;BME280;64247;51.540;5.854;2023-04-15T01:46:37;100448.56;;;2.92;100.00
75036;BME280;64247;51.540;5.854;2023-04-15T01:48:37;100447.28;;;2.89;100.00
75036;BME280;64247;51.540;5.854;2023-04-15T01:50:38;100456.09;;;2.90;100.00
75036;BME280;64247;51.540;5.854;2023-04-15T01:52:39;100448.97;;;2.85;100.00
75036;BME280;64247;51.540;5.854;2023-04-15T01:54:40;100451.25;;;2.78;100.00
75036;BME280;64247;51.540;5.854;2023-04-15T01:56:41;100457.78;;;2.72;100.00
75036;BME280;64247;51.540;5.854;2023-04-15T01:58:43;100458.00;;;2.75;100.00
75036;BME280;64247;51.540;5.854;2023-04-15T02:00:44;100458.19;;;2.79;100.00
75036;BME280;64247;51.540;5.854;2023-04-15T02:02:45;100453.03;;;2.82;100.00
75036;BME280;64247;51.540;5.854;2023-04-15T02:04:46;100452.66;;;2.89;100.00
75036;BME280;64247;51.540;5.854;2023-04-15T02:06:47;100456.41;;;3.02;100.00
75036;BME280;64247;51.540;5.854;2023-04-15T02:08:48;100446.94;;;3.19;100.00
75036;BME280;64247;51.540;5.854;2023-04-15T02:10:48;100456.69;;;3.28;100.00
75036;BME280;64247;51.540;5.854;2023-04-15T02:12:49;100452.66;;;3.40;100.00
75036;BME280;64247;51.540;5.854;2023-04-15T02:14:50;100459.50;;;3.46;100.00
75036;BME280;64247;51.540;5.854;2023-04-15T02:16:51;100460.81;;;3.48;100.00
75036;BME280;64247;51.540;5.854;2023-04-15T02:18:51;100461.59;;;3.49;100.00
75036;BME280;64247;51.540;5.854;2023-04-15T02:20:52;100463.38;;;3.54;100.00
75036;BME280;64247;51.540;5.854;2023-04-15T02:22:53;100453.16;;;3.56;100.00
75036;BME280;64247;51.540;5.854;2023-04-15T02:24:54;100452.03;;;3.57;100.00
75036;BME280;64247;51.540;5.854;2023-04-15T02:26:55;100450.66;;;3.59;100.00
75036;BME280;64247;51.540;5.854;2023-04-15T02:28:56;100459.34;;;3.65;100.00
75036;BME280;64247;51.540;5.854;2023-04-15T02:30:57;100456.88;;;3.69;100.00
75036;BME280;64247;51.540;5.854;2023-04-15T02:32:59;100456.88;;;3.69;100.00
75036;BME280;64247;51.540;5.854;2023-04-15T02:35:02;100464.53;;;3.61;100.00
75036;BME280;64247;51.540;5.854;2023-04-15T02:37:05;100467.53;;;3.60;100.00
75036;BME280;64247;51.540;5.854;2023-04-15T02:39:09;100466.13;;;3.62;100.00
75036;BME280;64247;51.540;5.854;2023-04-15T02:41:12;100468.72;;;3.68;100.00
75036;BME280;64247;51.540;5.854;2023-04-15T02:43:13;100469.81;;;3.67;100.00
75036;BME280;64247;51.540;5.854;2023-04-15T02:45:15;100477.19;;;3.61;100.00
75036;BME280;64247;51.540;5.854;2023-04-15T02:47:17;100478.88;;;3.57;100.00
75036;BME280;64247;51.540;5.854;2023-04-15T02:49:18;100477.91;;;3.53;100.00
75036;BME280;64247;51.540;5.854;2023-04-15T02:51:20;100481.78;;;3.46;100.00
75036;BME280;64247;51.540;5.854;2023-04-15T02:53:22;100478.59;;;3.44;100.00
75036;BME280;64247;51.540;5.854;2023-04-15T02:55:23;100480.00;;;3.42;100.00
75036;BME280;64247;51.540;5.854;2023-04-15T02:57:24;100481.09;;;3.41;100.00
75036;BME280;64247;51.540;5.854;2023-04-15T02:59:25;100494.91;;;3.34;100.00
75036;BME280;64247;51.540;5.854;2023-04-15T03:01:26;100487.56;;;3.26;100.00
75036;BME280;64247;51.540;5.854;2023-04-15T03:03:27;100495.22;;;3.19;100.00
75036;BME280;64247;51.540;5.854;2023-04-15T03:05:28;100495.63;;;3.12;100.00
75036;BME280;64247;51.540;5.854;2023-04-15T03:07:30;100491.94;;;3.08;100.00
75036;BME280;64247;51.540;5.854;2023-04-15T03:09:31;100484.22;;;3.06;100.00
75036;BME280;64247;51.540;5.854;2023-04-15T03:11:34;100488.28;;;3.04;100.00
75036;BME280;64247;51.540;5.854;2023-04-15T03:13:41;100485.09;;;3.01;100.00
75036;BME280;64247;51.540;5.854;2023-04-15T03:15:54;100494.94;;;3.06;100.00
75036;BME280;64247;51.540;5.854;2023-04-15T03:17:56;100492.47;;;3.10;100.00
75036;BME280;64247;51.540;5.854;2023-04-15T03:19:57;100489.28;;;3.08;100.00
75036;BME280;64247;51.540;5.854;2023-04-15T03:21:58;100496.03;;;3.05;100.00
75036;BME280;64247;51.540;5.854;2023-04-15T03:23:59;100494.75;;;3.03;100.00
75036;BME280;64247;51.540;5.854;2023-04-15T03:26:01;100492.06;;;3.03;100.00
75036;BME280;64247;51.540;5.854;2023-04-15T03:28:04;100500.88;;;3.03;100.00
75036;BME280;64247;51.540;5.854;2023-04-15T03:30:07;100501.69;;;3.04;100.00
75036;BME280;64247;51.540;5.854;2023-04-15T03:32:10;100496.72;;;3.11;100.00
75036;BME280;64247;51.540;5.854;2023-04-15T03:34:12;100507.06;;;3.17;100.00
75036;BME280;64247;51.540;5.854;2023-04-15T03:36:13;100503.19;;;3.24;100.00
75036;BME280;64247;51.540;5.854;2023-04-15T03:38:15;100506.06;;;3.27;100.00
75036;BME280;64247;51.540;5.854;2023-04-15T03:40:15;100520.06;;;3.38;100.00
75036;BME280;64247;51.540;5.854;2023-04-15T03:42:16;100515.97;;;3.41;100.00
75036;BME280;64247;51.540;5.854;2023-04-15T03:44:17;100510.69;;;3.49;100.00
75036;BME280;64247;51.540;5.854;2023-04-15T03:46:18;100517.56;;;3.56;100.00
75036;BME280;64247;51.540;5.854;2023-04-15T03:48:19;100515.13;;;3.68;100.00
75036;BME280;64247;51.540;5.854;2023-04-15T03:50:20;100509.84;;;3.77;100.00
75036;BME280;64247;51.540;5.854;2023-04-15T03:52:21;100526.22;;;3.89;100.00
75036;BME280;64247;51.540;5.854;2023-04-15T03:54:22;100522.91;;;3.92;100.00
75036;BME280;64247;51.540;5.854;2023-04-15T03:56:23;100517.91;;;4.00;100.00
75036;BME280;64247;51.540;5.854;2023-04-15T03:58:24;100524.78;;;4.06;100.00
75036;BME280;64247;51.540;5.854;2023-04-15T04:00:25;100528.44;;;4.10;100.00
75036;BME280;64247;51.540;5.854;2023-04-15T04:02:26;100515.50;;;4.12;100.00
75036;BME280;64247;51.540;5.854;2023-04-15T04:04:27;100532.09;;;4.14;100.00
75036;BME280;64247;51.540;5.854;2023-04-15T04:06:28;100531.31;;;4.14;100.00
75036;BME280;64247;51.540;5.854;2023-04-15T04:08:29;100531.19;;;4.19;100.00
75036;BME280;64247;51.540;5.854;2023-04-15T04:10:29;100544.31;;;4.20;100.00
75036;BME280;64247;51.540;5.854;2023-04-15T04:12:30;100534.03;;;4.22;100.00
75036;BME280;64247;51.540;5.854;2023-04-15T04:14:31;100535.63;;;4.23;100.00
75036;BME280;64247;51.540;5.854;2023-04-15T04:16:32;100543.88;;;4.27;100.00
75036;BME280;64247;51.540;5.854;2023-04-15T04:18:33;100550.34;;;4.26;100.00
75036;BME280;64247;51.540;5.854;2023-04-15T04:20:34;100550.06;;;4.27;100.00
75036;BME280;64247;51.540;5.854;2023-04-15T04:22:38;100551.34;;;4.30;100.00
75036;BME280;64247;51.540;5.854;2023-04-15T04:24:40;100556.72;;;4.30;100.00
75036;BME280;64247;51.540;5.854;2023-04-15T04:26:40;100572.84;;;4.30;100.00
75036;BME280;64247;51.540;5.854;2023-04-15T04:28:41;100569.06;;;4.31;100.00
75036;BME280;64247;51.540;5.854;2023-04-15T04:30:42;100562.09;;;4.30;100.00
75036;BME280;64247;51.540;5.854;2023-04-15T04:32:43;100576.13;;;4.27;100.00
75036;BME280;64247;51.540;5.854;2023-04-15T04:34:44;100576.75;;;4.24;100.00
75036;BME280;64247;51.540;5.854;2023-04-15T04:36:45;100577.66;;;4.19;100.00
75036;BME280;64247;51.540;5.854;2023-04-15T04:38:46;100582.84;;;4.16;100.00
75036;BME280;64247;51.540;5.854;2023-04-15T04:40:47;100579.16;;;4.11;100.00
75036;BME280;64247;51.540;5.854;2023-04-15T04:42:48;100589.81;;;4.17;100.00
75036;BME280;64247;51.540;5.854;2023-04-15T04:44:49;100583.94;;;4.15;100.00
75036;BME280;64247;51.540;5.854;2023-04-15T04:46:49;100589.63;;;4.13;100.00
75036;BME280;64247;51.540;5.854;2023-04-15T04:48:50;100590.81;;;4.07;100.00
75036;BME280;64247;51.540;5.854;2023-04-15T04:50:51;100591.53;;;3.99;100.00
75036;BME280;64247;51.540;5.854;2023-04-15T04:52:52;100590.75;;;3.98;100.00
75036;BME280;64247;51.540;5.854;2023-04-15T04:54:53;100596.13;;;3.98;100.00
75036;BME280;64247;51.540;5.854;2023-04-15T04:56:54;100587.28;;;3.98;100.00
75036;BME280;64247;51.540;5.854;2023-04-15T04:58:57;100608.16;;;4.01;100.00
75036;BME280;64247;51.540;5.854;2023-04-15T05:00:57;100603.59;;;4.01;100.00
75036;BME280;64247;51.540;5.854;2023-04-15T05:02:58;100609.25;;;4.00;100.00
75036;BME280;64247;51.540;5.854;2023-04-15T05:05:00;100610.34;;;3.99;100.00
75036;BME280;64247;51.540;5.854;2023-04-15T05:07:00;100608.25;;;3.95;100.00
75036;BME280;64247;51.540;5.854;2023-04-15T05:09:02;100620.88;;;3.95;100.00
75036;BME280;64247;51.540;5.854;2023-04-15T05:11:03;100618.50;;;3.93;100.00
75036;BME280;64247;51.540;5.854;2023-04-15T05:13:04;100616.91;;;3.92;100.00
75036;BME280;64247;51.540;5.854;2023-04-15T05:15:05;100625.78;;;3.93;100.00
75036;BME280;64247;51.540;5.854;2023-04-15T05:17:07;100628.16;;;3.94;100.00
75036;BME280;64247;51.540;5.854;2023-04-15T05:19:08;100631.81;;;3.99;100.00
75036;BME280;64247;51.540;5.854;2023-04-15T05:21:09;100635.00;;;4.01;100.00
75036;BME280;64247;51.540;5.854;2023-04-15T05:23:10;100635.19;;;4.04;100.00
75036;BME280;64247;51.540;5.854;2023-04-15T05:25:11;100641.25;;;4.10;100.00
75036;BME280;64247;51.540;5.854;2023-04-15T05:27:13;100647.91;;;4.12;100.00
75036;BME280;64247;51.540;5.854;2023-04-15T05:29:14;100648.59;;;4.18;100.00
75036;BME280;64247;51.540;5.854;2023-04-15T05:31:15;100649.59;;;4.22;100.00
75036;BME280;64247;51.540;5.854;2023-04-15T05:33:16;100648.41;;;4.28;100.00
75036;BME280;64247;51.540;5.854;2023-04-15T05:35:17;100651.47;;;4.36;100.00
75036;BME280;64247;51.540;5.854;2023-04-15T05:37:18;100658.00;;;4.43;100.00
75036;BME280;64247;51.540;5.854;2023-04-15T05:39:20;100662.97;;;4.50;100.00
75036;BME280;64247;51.540;5.854;2023-04-15T05:41:21;100662.25;;;4.58;100.00
75036;BME280;64247;51.540;5.854;2023-04-15T05:43:22;100660.38;;;4.68;100.00
75036;BME280;64247;51.540;5.854;2023-04-15T05:45:23;100657.16;;;4.80;100.00
75036;BME280;64247;51.540;5.854;2023-04-15T05:47:23;100672.72;;;4.91;100.00
75036;BME280;64247;51.540;5.854;2023-04-15T05:49:24;100674.25;;;5.06;100.00
75036;BME280;64247;51.540;5.854;2023-04-15T05:51:25;100680.78;;;5.14;100.00
75036;BME280;64247;51.540;5.854;2023-04-15T05:53:26;100685.13;;;5.24;100.00
75036;BME280;64247;51.540;5.854;2023-04-15T05:55:27;100678.03;;;5.28;100.00
75036;BME280;64247;51.540;5.854;2023-04-15T05:57:28;100687.09;;;5.32;100.00
75036;BME280;64247;51.540;5.854;2023-04-15T05:59:29;100687.91;;;5.42;100.00
75036;BME280;64247;51.540;5.854;2023-04-15T06:01:30;100684.91;;;5.43;100.00
75036;BME280;64247;51.540;5.854;2023-04-15T06:03:31;100691.25;;;5.47;100.00
75036;BME280;64247;51.540;5.854;2023-04-15T06:05:32;100691.44;;;5.51;100.00
75036;BME280;64247;51.540;5.854;2023-04-15T06:07:37;100706.84;;;5.59;100.00
75036;BME280;64247;51.540;5.854;2023-04-15T06:09:38;100700.69;;;5.67;100.00
75036;BME280;64247;51.540;5.854;2023-04-15T06:11:39;100708.94;;;5.71;100.00
75036;BME280;64247;51.540;5.854;2023-04-15T06:13:40;100702.31;;;5.77;100.00
75036;BME280;64247;51.540;5.854;2023-04-15T06:15:41;100707.88;;;5.81;100.00
75036;BME280;64247;51.540;5.854;2023-04-15T06:17:42;100721.38;;;5.90;100.00
75036;BME280;64247;51.540;5.854;2023-04-15T06:19:43;100721.13;;;6.00;100.00
75036;BME280;64247;51.540;5.854;2023-04-15T06:21:44;100720.66;;;6.07;100.00
75036;BME280;64247;51.540;5.854;2023-04-15T06:23:45;100732.88;;;6.13;100.00
75036;BME280;64247;51.540;5.854;2023-04-15T06:25:46;100733.53;;;6.18;100.00
75036;BME280;64247;51.540;5.854;2023-04-15T06:27:47;100736.09;;;6.24;100.00
75036;BME280;64247;51.540;5.854;2023-04-15T06:29:48;100740.22;;;6.30;100.00
75036;BME280;64247;51.540;5.854;2023-04-15T06:31:49;100746.75;;;6.38;100.00
75036;BME280;64247;51.540;5.854;2023-04-15T06:33:50;100744.38;;;6.45;100.00
75036;BME280;64247;51.540;5.854;2023-04-15T06:35:51;100750.09;;;6.52;100.00
75036;BME280;64247;51.540;5.854;2023-04-15T06:37:52;100750.59;;;6.63;100.00
75036;BME280;64247;51.540;5.854;2023-04-15T06:39:53;100756.13;;;6.75;100.00
75036;BME280;64247;51.540;5.854;2023-04-15T06:41:54;100762.97;;;6.90;100.00
75036;BME280;64247;51.540;5.854;2023-04-15T06:43:56;100762.66;;;7.09;100.00
75036;BME280;64247;51.540;5.854;2023-04-15T06:45:57;100767.41;;;7.21;100.00
75036;BME280;64247;51.540;5.854;2023-04-15T06:47:58;100770.88;;;7.39;99.45
75036;BME280;64247;51.540;5.854;2023-04-15T06:49:59;100772.91;;;7.51;98.81
75036;BME280;64247;51.540;5.854;2023-04-15T06:52:00;100777.78;;;7.67;98.03
75036;BME280;64247;51.540;5.854;2023-04-15T06:54:01;100776.63;;;7.85;97.54
75036;BME280;64247;51.540;5.854;2023-04-15T06:56:07;100781.94;;;8.03;97.66
75036;BME280;64247;51.540;5.854;2023-04-15T06:58:09;100779.50;;;8.19;96.91
75036;BME280;64247;51.540;5.854;2023-04-15T07:00:10;100777.97;;;8.39;96.04
75036;BME280;64247;51.540;5.854;2023-04-15T07:02:12;100789.81;;;8.55;95.29
75036;BME280;64247;51.540;5.854;2023-04-15T07:04:14;100791.16;;;8.70;95.04
75036;BME280;64247;51.540;5.854;2023-04-15T07:06:14;100793.16;;;8.82;93.86
75036;BME280;64247;51.540;5.854;2023-04-15T07:08:15;100791.81;;;8.89;93.67
75036;BME280;64247;51.540;5.854;2023-04-15T07:10:16;100797.16;;;8.97;93.00
75036;BME280;64247;51.540;5.854;2023-04-15T07:12:17;100806.59;;;9.12;92.14
75036;BME280;64247;51.540;5.854;2023-04-15T07:14:18;100809.81;;;9.27;92.20
75036;BME280;64247;51.540;5.854;2023-04-15T07:16:19;100808.19;;;9.34;91.97
75036;BME280;64247;51.540;5.854;2023-04-15T07:18:20;100810.69;;;9.52;91.13
75036;BME280;64247;51.540;5.854;2023-04-15T07:20:21;100815.84;;;9.78;89.99
75036;BME280;64247;51.540;5.854;2023-04-15T07:22:22;100818.25;;;10.05;88.58
75036;BME280;64247;51.540;5.854;2023-04-15T07:24:23;100826.19;;;10.22;87.95
75036;BME280;64247;51.540;5.854;2023-04-15T07:26:26;100829.16;;;10.42;87.07
75036;BME280;64247;51.540;5.854;2023-04-15T07:28:26;100834.94;;;10.53;86.57
75036;BME280;64247;51.540;5.854;2023-04-15T07:30:27;100842.84;;;10.58;86.35
75036;BME280;64247;51.540;5.854;2023-04-15T07:32:28;100842.69;;;10.67;84.28
75036;BME280;64247;51.540;5.854;2023-04-15T07:34:29;100842.59;;;10.75;82.67
75036;BME280;64247;51.540;5.854;2023-04-15T07:36:30;100850.03;;;10.79;82.83
75036;BME280;64247;51.540;5.854;2023-04-15T07:38:31;100851.97;;;10.78;82.26
75036;BME280;64247;51.540;5.854;2023-04-15T07:40:32;100849.47;;;10.73;82.80
75036;BME280;64247;51.540;5.854;2023-04-15T07:42:34;100856.94;;;10.76;83.25
75036;BME280;64247;51.540;5.854;2023-04-15T07:44:35;100854.00;;;10.81;82.66
75036;BME280;64247;51.540;5.854;2023-04-15T07:46:36;100865.56;;;10.78;82.88
75036;BME280;64247;51.540;5.854;2023-04-15T07:48:37;100869.75;;;10.75;83.01
75036;BME280;64247;51.540;5.854;2023-04-15T07:50:38;100868.63;;;10.76;83.46
75036;BME280;64247;51.540;5.854;2023-04-15T07:52:39;100868.72;;;10.80;82.51
75036;BME280;64247;51.540;5.854;2023-04-15T07:54:40;100860.22;;;10.82;83.15
75036;BME280;64247;51.540;5.854;2023-04-15T07:56:41;100868.94;;;10.87;82.28
75036;BME280;64247;51.540;5.854;2023-04-15T07:58:42;100870.41;;;10.85;82.62
75036;BME280;64247;51.540;5.854;2023-04-15T08:00:43;100872.88;;;10.90;81.98
75036;BME280;64247;51.540;5.854;2023-04-15T08:02:44;100882.28;;;10.92;82.88
75036;BME280;64247;51.540;5.854;2023-04-15T08:04:46;100885.66;;;11.02;81.16
75036;BME280;64247;51.540;5.854;2023-04-15T08:06:47;100887.34;;;11.06;80.58
75036;BME280;64247;51.540;5.854;2023-04-15T08:08:49;100891.19;;;11.05;80.90
75036;BME280;64247;51.540;5.854;2023-04-15T08:10:51;100889.84;;;10.99;81.36
75036;BME280;64247;51.540;5.854;2023-04-15T08:12:53;100889.06;;;10.99;80.27
75036;BME280;64247;51.540;5.854;2023-04-15T08:14:54;100896.06;;;11.00;79.83
75036;BME280;64247;51.540;5.854;2023-04-15T08:16:56;100891.66;;;10.95;80.35
75036;BME280;64247;51.540;5.854;2023-04-15T08:18:57;100899.56;;;11.00;81.10
75036;BME280;64247;51.540;5.854;2023-04-15T08:20:58;100900.69;;;11.12;80.92
75036;BME280;64247;51.540;5.854;2023-04-15T08:22:59;100900.75;;;11.28;79.33
75036;BME280;64247;51.540;5.854;2023-04-15T08:25:00;100902.22;;;11.37;77.32
75036;BME280;64247;51.540;5.854;2023-04-15T08:27:01;100905.13;;;11.45;77.21
75036;BME280;64247;51.540;5.854;2023-04-15T08:29:04;100900.31;;;11.54;76.82
75036;BME280;64247;51.540;5.854;2023-04-15T08:31:05;100905.47;;;11.71;75.80
75036;BME280;64247;51.540;5.854;2023-04-15T08:33:05;100905.06;;;11.85;75.98
75036;BME280;64247;51.540;5.854;2023-04-15T08:35:07;100901.72;;;12.05;75.70
75036;BME280;64247;51.540;5.854;2023-04-15T08:37:08;100906.47;;;12.24;74.15
75036;BME280;64247;51.540;5.854;2023-04-15T08:39:09;100911.56;;;12.41;72.98
75036;BME280;64247;51.540;5.854;2023-04-15T08:41:21;100913.13;;;12.58;72.44
75036;BME280;64247;51.540;5.854;2023-04-15T08:43:27;100907.22;;;12.88;70.77
75036;BME280;64247;51.540;5.854;2023-04-15T08:45:33;100910.09;;;13.15;69.45
75036;BME280;64247;51.540;5.854;2023-04-15T08:47:36;100925.34;;;13.36;69.31
75036;BME280;64247;51.540;5.854;2023-04-15T08:49:42;100924.16;;;13.53;67.68
75036;BME280;64247;51.540;5.854;2023-04-15T08:51:44;100932.50;;;13.60;67.42
75036;BME280;64247;51.540;5.854;2023-04-15T08:53:45;100923.16;;;13.61;66.66
75036;BME280;64247;51.540;5.854;2023-04-15T08:55:50;100938.38;;;13.62;67.08
75036;BME280;64247;51.540;5.854;2023-04-15T08:57:53;100934.50;;;13.63;66.49
75036;BME280;64247;51.540;5.854;2023-04-15T08:59:56;100938.44;;;13.66;66.43
75036;BME280;64247;51.540;5.854;2023-04-15T09:01:58;100939.66;;;13.68;66.65
75036;BME280;64247;51.540;5.854;2023-04-15T09:03:59;100941.81;;;13.59;66.12
75036;BME280;64247;51.540;5.854;2023-04-15T09:06:04;100945.16;;;13.33;66.92
75036;BME280;64247;51.540;5.854;2023-04-15T09:08:06;100946.28;;;13.12;68.33
75036;BME280;64247;51.540;5.854;2023-04-15T09:10:08;100959.13;;;12.95;69.53
75036;BME280;64247;51.540;5.854;2023-04-15T09:12:10;100952.78;;;12.91;68.92
75036;BME280;64247;51.540;5.854;2023-04-15T09:14:12;100955.19;;;12.93;69.37
75036;BME280;64247;51.540;5.854;2023-04-15T09:16:12;100959.66;;;13.01;68.88
75036;BME280;64247;51.540;5.854;2023-04-15T09:18:26;100962.63;;;13.12;67.22
75036;BME280;64247;51.540;5.854;2023-04-15T09:20:39;100970.97;;;13.19;68.46
75036;BME280;64247;51.540;5.854;2023-04-15T09:22:45;100966.59;;;13.34;69.01
75036;BME280;64247;51.540;5.854;2023-04-15T09:24:48;100968.50;;;13.50;64.42
75036;BME280;64247;51.540;5.854;2023-04-15T09:26:53;100972.25;;;13.61;64.06
75036;BME280;64247;51.540;5.854;2023-04-15T09:29:10;100981.44;;;13.72;64.62
75036;BME280;64247;51.540;5.854;2023-04-15T09:31:14;100982.88;;;13.86;64.04
75036;BME280;64247;51.540;5.854;2023-04-15T09:33:15;100973.25;;;13.92;63.53
75036;BME280;64247;51.540;5.854;2023-04-15T09:35:17;100987.41;;;13.98;63.06
75036;BME280;64247;51.540;5.854;2023-04-15T09:37:33;100977.03;;;14.07;62.20
75036;BME280;64247;51.540;5.854;2023-04-15T09:39:48;100983.50;;;14.18;61.43
75036;BME280;64247;51.540;5.854;2023-04-15T09:42:07;100988.00;;;14.30;60.64
75036;BME280;64247;51.540;5.854;2023-04-15T09:44:21;100994.38;;;14.38;61.45
75036;BME280;64247;51.540;5.854;2023-04-15T09:46:42;100988.06;;;14.57;61.84
75036;BME280;64247;51.540;5.854;2023-04-15T09:48:45;100996.84;;;14.66;59.82
75036;BME280;64247;51.540;5.854;2023-04-15T09:50:47;100998.53;;;14.51;59.88
75036;BME280;64247;51.540;5.854;2023-04-15T09:52:49;100989.09;;;14.25;59.31
75036;BME280;64247;51.540;5.854;2023-04-15T09:54:52;101004.91;;;14.16;61.38
75036;BME280;64247;51.540;5.854;2023-04-15T09:56:55;100999.94;;;14.22;60.02
75036;BME280;64247;51.540;5.854;2023-04-15T09:58:56;101000.31;;;14.20;60.31
75036;BME280;64247;51.540;5.854;2023-04-15T10:00:59;101011.00;;;14.29;60.89
75036;BME280;64247;51.540;5.854;2023-04-15T10:03:04;101011.31;;;14.47;60.35
75036;BME280;64247;51.540;5.854;2023-04-15T10:05:09;101015.50;;;14.64;61.42
75036;BME280;64247;51.540;5.854;2023-04-15T10:07:11;101016.25;;;14.84;59.83
75036;BME280;64247;51.540;5.854;2023-04-15T10:09:14;101013.34;;;14.97;58.90
75036;BME280;64247;51.540;5.854;2023-04-15T10:11:19;101023.66;;;14.84;58.37
75036;BME280;64247;51.540;5.854;2023-04-15T10:13:25;101023.50;;;14.53;58.47
75036;BME280;64247;51.540;5.854;2023-04-15T10:15:28;101009.59;;;14.39;60.10
75036;BME280;64247;51.540;5.854;2023-04-15T10:17:32;101024.28;;;14.31;60.39
75036;BME280;64247;51.540;5.854;2023-04-15T10:19:36;101040.66;;;14.31;60.28
75036;BME280;64247;51.540;5.854;2023-04-15T10:21:38;101031.63;;;14.27;60.51
75036;BME280;64247;51.540;5.854;2023-04-15T10:23:40;101021.34;;;14.20;59.66
75036;BME280;64247;51.540;5.854;2023-04-15T10:25:42;101036.00;;;14.12;60.97
75036;BME280;64247;51.540;5.854;2023-04-15T10:27:44;101038.03;;;14.15;60.62
75036;BME280;64247;51.540;5.854;2023-04-15T10:29:50;101026.53;;;14.25;62.05
75036;BME280;64247;51.540;5.854;2023-04-15T10:31:54;101030.34;;;14.20;60.27
75036;BME280;64247;51.540;5.854;2023-04-15T10:33:56;101034.78;;;14.29;60.20
75036;BME280;64247;51.540;5.854;2023-04-15T10:35:58;101039.00;;;14.46;60.58
75036;BME280;64247;51.540;5.854;2023-04-15T10:38:00;101026.78;;;14.63;59.39
75036;BME280;64247;51.540;5.854;2023-04-15T10:40:25;101036.06;;;14.78;59.89